»·PEaware :: N107MR KLAS-KPSP

N107MR :: KLAS-KPSP

FLIGHT INFORMATION

Flight Status: Arrived
Operator: Privately registered:
United States
More flights under this callsign
Pilot: Michael R. (16974)
Aircraft: MITSUBISHI MU-2 MARQUISE
(MU2)
More flights by this aircraft type
Origin: KLAS McCarran Intl
United States
Destination: KPSP Palm Springs Intl
United States
More flights between these airports :: More routes between these airports
Route: ZELMA LVELL TNP CILCA
File this flight plan on PilotEdge
Remarks:
Altitude:
(Current/Filed)
12,500ft
Speed:
(Current/Filed)
280kts
Departed: 05-Oct-18 06:24 PM
Arrived: 05-Oct-18 07:09 PM
Distance/Time
Traveled:
150nm/0:45
Distance/Time
To Go:
Arrived

Flight Plot

Page will automatically refresh every two minutes.

Flight plan parsing failed; only flown route is shown


Map Options




Map Legend


Flown Route
Filed Route
Departure Airport
Arrival Airport
Navaid (VOR, NDB)
Fix

Horizontal Profiles

Position Reports

Time Latitude Longitude Heading Altitude Ground
Speed
05-Oct-18 18:03 36.080895 -115.171302 359 2118ft 0kts
05-Oct-18 18:04 36.080895 -115.171302 359 2118ft 0kts
05-Oct-18 18:05 36.080895 -115.171302 359 2118ft 0kts
05-Oct-18 18:06 36.080895 -115.171302 359 2118ft 0kts
05-Oct-18 18:07 36.080895 -115.171302 359 2118ft 0kts
05-Oct-18 18:08 36.080895 -115.171302 359 2118ft 0kts
05-Oct-18 18:09 36.080895 -115.171302 359 2118ft 0kts
05-Oct-18 18:10 36.080895 -115.171302 359 2118ft 0kts
05-Oct-18 18:11 36.080895 -115.171302 359 2118ft 0kts
05-Oct-18 18:12 36.080895 -115.171302 359 2118ft 0kts
05-Oct-18 18:13 36.080895 -115.171302 359 2118ft 0kts
05-Oct-18 18:14 36.080895 -115.171302 359 2118ft 0kts
05-Oct-18 18:15 36.080895 -115.171302 359 2118ft 0kts
05-Oct-18 18:16 36.080895 -115.171302 359 2118ft 0kts
05-Oct-18 18:17 36.080895 -115.171302 359 2118ft 0kts
05-Oct-18 18:18 36.080895 -115.171302 359 2118ft 0kts
05-Oct-18 18:19 36.080895 -115.171302 359 2118ft 0kts
05-Oct-18 18:20 36.080917 -115.171301 1 2118ft 1kts
05-Oct-18 18:21 36.080581 -115.169726 210 2118ft 9kts
05-Oct-18 18:22 36.078403 -115.170936 178 2118ft 12kts
05-Oct-18 18:23 36.078026 -115.169943 89 2118ft 0kts
05-Oct-18 18:24 36.078026 -115.169943 89 2118ft 0kts
05-Oct-18 18:25 36.078803 -115.168434 26 2118ft 28kts
05-Oct-18 18:26 36.108891 -115.151456 4 2889ft 133kts
05-Oct-18 18:27 36.126219 -115.187837 252 4470ft 173kts
05-Oct-18 18:28 36.107412 -115.251452 249 5335ft 227kts
05-Oct-18 18:29 36.074594 -115.318427 212 6657ft 232kts
05-Oct-18 18:30 36.010050 -115.336052 189 7860ft 235kts
05-Oct-18 18:31 35.944109 -115.353226 192 8512ft 257kts
05-Oct-18 18:32 35.870658 -115.372789 192 8505ft 282kts
05-Oct-18 18:33 35.792251 -115.391882 182 8511ft 291kts
05-Oct-18 18:34 35.713448 -115.394702 181 8907ft 262kts
05-Oct-18 18:35 35.644057 -115.393996 160 10379ft 242kts
05-Oct-18 18:36 35.583119 -115.361911 155 11632ft 237kts
05-Oct-18 18:37 35.521347 -115.334871 178 12496ft 249kts
05-Oct-18 18:38 35.448821 -115.334117 180 12485ft 269kts
05-Oct-18 18:39 35.372665 -115.333642 179 12486ft 276kts
05-Oct-18 18:40 35.295510 -115.333147 180 12472ft 280kts
05-Oct-18 18:41 35.217362 -115.332614 179 12447ft 282kts
05-Oct-18 18:42 35.138740 -115.332121 180 12425ft 282kts
05-Oct-18 18:43 35.060324 -115.331620 180 12405ft 283kts
05-Oct-18 18:44 34.981496 -115.331089 179 12395ft 283kts
05-Oct-18 18:45 34.915961 -115.330696 180 12396ft 284kts
05-Oct-18 18:46 34.837684 -115.330204 180 12483ft 282kts
05-Oct-18 18:47 34.748912 -115.346751 204 12485ft 281kts
05-Oct-18 18:48 34.688866 -115.377113 204 12497ft 281kts
05-Oct-18 18:49 34.616724 -115.413155 204 12553ft 281kts
05-Oct-18 18:50 34.532575 -115.455090 204 12620ft 281kts
05-Oct-18 18:51 34.471551 -115.485439 204 12486ft 285kts
05-Oct-18 18:52 34.398361 -115.521775 204 12486ft 284kts
05-Oct-18 18:53 34.325309 -115.557976 204 12486ft 284kts
05-Oct-18 18:54 34.252152 -115.594162 204 12487ft 284kts
05-Oct-18 18:55 34.190496 -115.646374 235 11810ft 265kts
05-Oct-18 18:56 34.149474 -115.711137 235 10789ft 249kts
05-Oct-18 18:57 34.107741 -115.776030 231 9674ft 242kts
05-Oct-18 18:58 34.062839 -115.836787 230 8595ft 260kts
05-Oct-18 18:59 34.012776 -115.904159 230 8508ft 276kts
05-Oct-18 19:00 33.961741 -115.972807 230 8485ft 265kts
05-Oct-18 19:01 33.914723 -116.036008 230 8443ft 244kts
05-Oct-18 19:02 33.871675 -116.093748 230 8405ft 221kts
05-Oct-18 19:03 33.833039 -116.145507 230 8505ft 200kts
05-Oct-18 19:04 33.795399 -116.195860 230 8500ft 213kts
05-Oct-18 19:05 33.754249 -116.253485 233 8014ft 245kts
05-Oct-18 19:06 33.707427 -116.321070 233 6426ft 254kts
05-Oct-18 19:07 33.712930 -116.393934 299 4138ft 237kts
05-Oct-18 19:08 33.753777 -116.437107 323 2135ft 174kts
05-Oct-18 19:09 33.788282 -116.467753 321 1303ft 143kts
05-Oct-18 19:10 33.818770 -116.495100 322 589ft 127kts
05-Oct-18 19:11 33.829992 -116.504359 55 429ft 3kts
05-Oct-18 19:12 33.832745 -116.505622 155 429ft 14kts
05-Oct-18 19:13 33.832539 -116.505494 150 429ft 0kts
05-Oct-18 19:14 33.832539 -116.505494 150 429ft 0kts
05-Oct-18 19:15 33.832539 -116.505494 150 429ft 0kts

Navigation Log

Ident Type
Flight plan parsing failed, navigation log unavailable